Time;durP1;ratioP1;P1;durP2;ratioP2;P2;SDS_P1;SDS_P2;PMS_P1;PMS_P2;Temp;Humidity;BMP_temperature;BMP_pressure;BME280_temperature;BME280_humidity;BME280_pressure;Samples;Min_cycle;Max_cycle;Signal;HPM_P1;HPM_P2
2021/08/27 00:00:56;;;;;;;5.15;1.60;;;14.40;99.90;;;;;;5061293;28;20060;-86
2021/08/27 00:03:21;;;;;;;19.20;2.25;;;14.40;99.90;;;;;;5045346;28;20129;-84
2021/08/27 00:05:48;;;;;;;11.93;1.98;;;14.50;99.90;;;;;;5022923;28;20052;-85
2021/08/27 00:08:14;;;;;;;27.45;3.63;;;14.50;99.90;;;;;;5034541;28;20547;-84
2021/08/27 00:10:40;;;;;;;7.65;1.70;;;14.50;99.90;;;;;;5049959;28;20128;-84
2021/08/27 00:13:06;;;;;;;13.57;2.28;;;14.50;99.90;;;;;;5051178;28;20048;-83
2021/08/27 00:15:31;;;;;;;10.93;1.70;;;14.60;99.90;;;;;;5050974;28;20373;-87
2021/08/27 00:17:57;;;;;;;4.22;1.25;;;14.60;99.90;;;;;;5048041;28;20512;-84
2021/08/27 00:20:23;;;;;;;5.47;1.83;;;14.60;99.90;;;;;;5038716;28;20106;-84
2021/08/27 00:22:48;;;;;;;10.38;2.33;;;14.50;99.90;;;;;;5050542;28;20049;-84
2021/08/27 00:25:14;;;;;;;6.03;1.70;;;14.40;99.90;;;;;;5067109;28;20071;-84
2021/08/27 00:27:40;;;;;;;6.55;1.48;;;14.40;99.90;;;;;;5049739;28;20447;-84
2021/08/27 00:30:06;;;;;;;8.35;1.60;;;14.30;99.90;;;;;;5033988;28;20045;-84
2021/08/27 00:32:32;;;;;;;11.95;1.83;;;14.20;99.90;;;;;;5033659;28;20456;-84
2021/08/27 00:34:57;;;;;;;4.50;1.35;;;14.20;99.90;;;;;;5048437;28;20089;-84
2021/08/27 00:37:23;;;;;;;5.22;1.13;;;14.10;99.90;;;;;;5054388;28;20036;-85
2021/08/27 00:39:49;;;;;;;13.00;2.13;;;14.10;99.90;;;;;;5033014;28;20060;-85
2021/08/27 00:42:15;;;;;;;10.77;1.70;;;14.10;99.90;;;;;;5067353;28;20564;-84
2021/08/27 00:44:40;;;;;;;9.27;1.75;;;14.10;99.90;;;;;;5049483;28;20045;-85
2021/08/27 00:47:06;;;;;;;8.75;2.05;;;14.20;99.90;;;;;;5050335;28;20394;-85
2021/08/27 00:49:33;;;;;;;4.88;1.85;;;14.30;99.90;;;;;;5050370;28;20082;-86
2021/08/27 00:51:59;;;;;;;3.72;1.25;;;14.30;99.90;;;;;;5032923;28;20427;-85
2021/08/27 00:54:25;;;;;;;6.88;1.67;;;14.30;99.90;;;;;;5049533;28;20501;-85
2021/08/27 00:56:51;;;;;;;5.43;1.70;;;14.40;99.90;;;;;;5065849;28;20057;-85
2021/08/27 00:59:17;;;;;;;8.90;1.55;;;14.50;99.90;;;;;;5066829;28;20045;-84
2021/08/27 01:01:43;;;;;;;11.95;3.70;;;14.50;99.90;;;;;;5033112;28;20063;-85
2021/08/27 01:04:10;;;;;;;10.45;1.83;;;14.60;99.90;;;;;;5033490;28;20044;-84
2021/08/27 01:06:39;;;;;;;9.23;2.70;;;14.70;99.90;;;;;;5033587;28;20048;-87
2021/08/27 01:09:19;;;;;;;9.32;2.50;;;14.70;99.90;;;;;;5048175;28;20381;-84
2021/08/27 01:12:17;;;;;;;10.35;2.20;;;14.70;99.90;;;;;;5055020;28;20041;-85
2021/08/27 01:14:56;;;;;;;5.30;1.90;;;14.70;99.90;;;;;;5028083;28;20052;-85
2021/08/27 01:17:28;;;;;;;7.43;2.35;;;14.80;99.90;;;;;;5032754;28;20110;-85
2021/08/27 01:20:14;;;;;;;2.78;1.73;;;14.80;99.90;;;;;;5032450;28;20045;-84
2021/08/27 01:23:23;;;;;;;5.15;1.75;;;14.90;99.90;;;;;;5032579;28;20516;-86
2021/08/27 01:25:52;;;;;;;15.43;3.10;;;15.00;99.90;;;;;;5032159;28;20562;-84
2021/08/27 01:28:21;;;;;;;14.38;2.60;;;15.10;99.90;;;;;;5032743;28;20080;-85
2021/08/27 01:31:11;;;;;;;19.15;2.97;;;15.10;99.90;;;;;;5031805;28;20048;-85
2021/08/27 01:33:56;;;;;;;19.90;2.92;;;15.20;99.90;;;;;;5067495;28;20048;-85
2021/08/27 01:36:24;;;;;;;11.45;2.28;;;15.20;99.90;;;;;;5032917;28;20045;-85
2021/08/27 01:38:51;;;;;;;9.15;2.75;;;15.20;99.90;;;;;;5032090;28;20041;-85
2021/08/27 01:41:17;;;;;;;20.55;3.40;;;15.20;99.90;;;;;;5032731;28;20049;-85
2021/08/27 01:43:44;;;;;;;13.52;3.78;;;15.30;99.90;;;;;;5065619;28;20052;-88
2021/08/27 01:46:11;;;;;;;10.35;2.25;;;15.30;99.90;;;;;;5049346;28;20098;-85
2021/08/27 01:48:38;;;;;;;15.23;3.30;;;15.30;99.90;;;;;;5032374;28;20131;-85
2021/08/27 01:51:08;;;;;;;10.48;2.30;;;15.40;99.90;;;;;;5064896;28;20049;-85
2021/08/27 01:53:34;;;;;;;12.07;2.03;;;15.30;99.90;;;;;;5032554;28;20037;-85
2021/08/27 01:56:02;;;;;;;12.02;3.08;;;15.30;99.90;;;;;;5042681;28;20056;-84
2021/08/27 01:58:35;;;;;;;13.50;2.92;;;15.30;99.90;;;;;;5061550;28;20148;-85
2021/08/27 02:01:02;;;;;;;21.27;3.17;;;15.20;99.90;;;;;;5014877;28;20045;-84
2021/08/27 02:03:30;;;;;;;10.50;2.60;;;15.10;99.90;;;;;;5032211;28;20063;-84
2021/08/27 02:05:57;;;;;;;15.13;3.72;;;14.90;99.90;;;;;;5031368;28;20052;-84
2021/08/27 02:08:24;;;;;;;15.57;3.00;;;14.90;99.90;;;;;;5065350;28;20401;-84
2021/08/27 02:10:51;;;;;;;13.57;2.75;;;14.90;99.90;;;;;;5064338;28;20393;-84
2021/08/27 02:13:19;;;;;;;11.38;2.60;;;15.00;99.90;;;;;;5032580;28;20419;-85
2021/08/27 02:15:47;;;;;;;11.95;2.47;;;14.90;99.90;;;;;;5031558;28;20049;-87
2021/08/27 02:18:13;;;;;;;9.57;1.75;;;15.00;99.90;;;;;;5032109;28;20219;-85
2021/08/27 02:20:39;;;;;;;6.32;2.20;;;14.90;99.90;;;;;;5048452;28;20573;-85
2021/08/27 02:23:06;;;;;;;13.68;2.88;;;14.90;99.90;;;;;;5064377;28;20582;-86
2021/08/27 02:25:34;;;;;;;8.70;2.30;;;14.90;99.90;;;;;;5048364;28;20103;-85
2021/08/27 02:28:04;;;;;;;15.50;2.90;;;14.80;99.90;;;;;;5030417;28;20049;-85
2021/08/27 02:30:32;;;;;;;8.75;2.38;;;14.80;99.90;;;;;;5047857;28;20057;-86
2021/08/27 02:33:06;;;;;;;17.38;3.00;;;14.90;99.90;;;;;;5047420;28;20448;-85
2021/08/27 02:35:33;;;;;;;10.38;2.72;;;14.90;99.90;;;;;;5031919;28;20139;-85
2021/08/27 02:37:59;;;;;;;9.07;2.40;;;14.90;99.90;;;;;;5047326;28;20140;-86
2021/08/27 02:40:25;;;;;;;6.65;2.05;;;14.90;99.90;;;;;;5031930;28;20520;-85
2021/08/27 02:42:51;;;;;;;14.73;3.15;;;14.80;99.90;;;;;;5064155;28;20077;-85
2021/08/27 02:45:17;;;;;;;10.38;2.35;;;14.80;99.90;;;;;;5031025;28;20052;-85
2021/08/27 02:47:44;;;;;;;12.23;3.55;;;14.80;99.90;;;;;;5064195;28;20052;-85
2021/08/27 02:50:13;;;;;;;8.65;2.60;;;14.80;99.90;;;;;;5048741;28;20116;-84
2021/08/27 02:52:58;;;;;;;17.35;2.88;;;14.90;99.90;;;;;;5031186;28;20048;-85
2021/08/27 02:55:33;;;;;;;18.10;3.83;;;14.90;99.90;;;;;;5026497;28;20405;-85
2021/08/27 02:58:09;;;;;;;9.80;2.50;;;14.90;99.90;;;;;;5056092;28;20055;-85
2021/08/27 03:00:41;;;;;;;17.08;2.70;;;14.90;99.90;;;;;;5031253;28;20040;-85
2021/08/27 03:03:07;;;;;;;12.63;3.08;;;15.00;99.90;;;;;;5030216;28;20044;-85
2021/08/27 03:05:42;;;;;;;11.75;2.25;;;15.00;99.90;;;;;;5048001;28;20049;-86
2021/08/27 03:08:15;;;;;;;14.77;2.70;;;14.90;99.90;;;;;;5030669;28;20053;-85
2021/08/27 03:11:06;;;;;;;11.48;2.70;;;14.90;99.90;;;;;;5017106;28;20106;-85
2021/08/27 03:14:07;;;;;;;15.52;2.92;;;14.90;99.90;;;;;;5031063;28;20501;-85
2021/08/27 03:16:38;;;;;;;9.18;2.63;;;15.00;99.90;;;;;;5001851;28;20049;-85
2021/08/27 03:19:10;;;;;;;14.45;2.35;;;14.90;99.90;;;;;;5046933;28;20040;-86
2021/08/27 03:21:41;;;;;;;10.68;2.42;;;14.90;99.90;;;;;;5031401;28;20049;-86
2021/08/27 03:24:11;;;;;;;;;;;15.00;99.90;;;;;;5030888;28;20114;-85
2021/08/27 03:26:37;;;;;;;12.00;1.60;;;15.00;99.90;;;;;;5047730;28;19920;-85
2021/08/27 03:29:08;;;;;;;6.57;2.40;;;15.10;99.90;;;;;;5046374;28;20056;-85
2021/08/27 03:31:37;;;;;;;16.48;1.58;;;15.20;99.90;;;;;;5030869;28;20037;-85
2021/08/27 03:34:04;;;;;;;12.68;2.65;;;15.20;99.90;;;;;;5029900;28;20132;-86
2021/08/27 03:36:31;;;;;;;17.05;3.50;;;15.20;99.90;;;;;;5047484;28;20037;-84
2021/08/27 03:38:59;;;;;;;25.95;4.38;;;15.20;99.90;;;;;;5045636;28;20087;-85
2021/08/27 03:41:28;;;;;;;12.05;2.80;;;15.00;99.90;;;;;;5034047;28;20064;-85
2021/08/27 03:43:55;;;;;;;10.23;2.03;;;14.70;99.90;;;;;;5034582;28;20064;-85
2021/08/27 03:46:22;;;;;;;18.45;2.88;;;14.60;99.90;;;;;;5068141;28;20132;-85
2021/08/27 03:48:49;;;;;;;19.52;3.60;;;14.60;99.90;;;;;;5044937;28;20052;-86
2021/08/27 03:51:16;;;;;;;10.52;2.47;;;14.60;99.90;;;;;;5027026;28;20072;-85
2021/08/27 03:53:44;;;;;;;16.50;2.63;;;14.60;99.90;;;;;;5034406;28;20431;-83
2021/08/27 03:56:10;;;;;;;17.83;2.75;;;14.60;99.90;;;;;;5051357;28;20065;-83
2021/08/27 03:58:37;;;;;;;17.65;3.42;;;14.40;99.90;;;;;;5034387;28;20466;-83
2021/08/27 04:01:04;;;;;;;19.88;3.38;;;14.00;99.90;;;;;;5033536;28;20426;-84
2021/08/27 04:03:30;;;;;;;19.10;2.80;;;13.90;99.90;;;;;;5034536;28;20132;-83
2021/08/27 04:06:04;;;;;;;17.55;2.85;;;13.90;99.90;;;;;;5049950;28;20049;-84
2021/08/27 04:08:34;;;;;;;21.25;2.85;;;13.80;99.90;;;;;;5051240;28;20049;-85
2021/08/27 04:11:00;;;;;;;13.68;2.17;;;13.80;99.90;;;;;;5016601;28;20053;-84
2021/08/27 04:13:26;;;;;;;15.20;2.70;;;13.80;99.90;;;;;;5034066;28;20053;-83
2021/08/27 04:15:52;;;;;;;20.33;2.33;;;13.80;99.90;;;;;;5033922;28;20055;-86
2021/08/27 04:18:18;;;;;;;27.65;3.60;;;13.80;99.90;;;;;;5033829;28;20056;-83
2021/08/27 04:20:44;;;;;;;16.15;2.30;;;13.90;99.90;;;;;;5033947;28;20405;-84
2021/08/27 04:23:09;;;;;;;14.07;2.70;;;13.90;99.90;;;;;;5028698;28;20041;-85
2021/08/27 04:25:35;;;;;;;12.30;3.00;;;13.90;99.90;;;;;;5050619;28;20091;-82
2021/08/27 04:28:01;;;;;;;11.02;1.83;;;14.00;99.90;;;;;;5049722;28;20051;-82
2021/08/27 04:30:27;;;;;;;33.90;3.13;;;14.00;99.90;;;;;;5017669;28;20053;-80
2021/08/27 04:33:00;;;;;;;15.63;1.83;;;14.00;99.90;;;;;;5050207;28;20059;-80
2021/08/27 04:35:26;;;;;;;17.63;2.15;;;13.80;99.90;;;;;;5051243;28;20045;-81
2021/08/27 04:37:56;;;;;;;20.05;3.22;;;13.70;99.90;;;;;;5017089;28;20053;-83
2021/08/27 04:40:22;;;;;;;10.13;1.60;;;13.60;99.90;;;;;;5051846;28;20130;-82
2021/08/27 04:42:48;;;;;;;7.68;1.83;;;13.70;99.90;;;;;;5050170;28;20056;-83
2021/08/27 04:45:14;;;;;;;12.32;2.10;;;13.70;99.90;;;;;;5016235;28;20037;-82
2021/08/27 04:47:40;;;;;;;19.02;2.75;;;13.80;99.90;;;;;;5049860;28;20056;-82
2021/08/27 04:50:07;;;;;;;13.13;2.10;;;13.80;99.90;;;;;;5049078;28;20040;-82
2021/08/27 04:52:33;;;;;;;9.30;2.20;;;13.80;99.90;;;;;;5065465;28;20072;-82
2021/08/27 04:54:59;;;;;;;6.47;1.88;;;13.90;99.90;;;;;;5032431;28;20138;-83
2021/08/27 04:57:25;;;;;;;10.60;1.95;;;14.00;99.90;;;;;;5034080;28;20481;-82
2021/08/27 04:59:52;;;;;;;12.90;2.45;;;14.00;99.90;;;;;;5066652;28;20072;-83
2021/08/27 05:02:18;;;;;;;11.70;2.22;;;14.00;99.90;;;;;;5032741;28;20045;-82
2021/08/27 05:04:44;;;;;;;14.40;2.30;;;14.00;99.90;;;;;;5066808;28;20493;-83
2021/08/27 05:07:09;;;;;;;23.45;2.45;;;14.10;99.90;;;;;;5065733;28;20041;-82
2021/08/27 05:09:35;;;;;;;23.73;3.58;;;14.30;99.90;;;;;;5049694;28;20155;-82
2021/08/27 07:42:40;;;;;;;14.23;2.47;;;15.50;99.90;;;;;;5177668;23;20602;-82
2021/08/27 07:45:06;;;;;;;8.77;1.83;;;15.60;99.90;;;;;;4841655;29;20286;-89
2021/08/27 07:47:32;;;;;;;8.23;1.63;;;15.70;99.90;;;;;;4830124;29;20152;-93
2021/08/27 07:49:58;;;;;;;10.32;1.98;;;15.90;99.90;;;;;;4831418;29;20081;-84
2021/08/27 07:52:23;;;;;;;16.75;2.92;;;16.00;99.90;;;;;;4862835;29;20045;-86
2021/08/27 07:54:49;;;;;;;5.00;1.67;;;16.00;99.90;;;;;;4861082;29;20055;-88
2021/08/27 07:57:15;;;;;;;1.20;0.80;;;15.60;99.90;;;;;;4861197;29;20100;-88
2021/08/27 07:59:40;;;;;;;2.17;0.93;;;15.20;99.90;;;;;;4863266;29;20394;-87
2021/08/27 08:02:14;;;;;;;3.20;0.98;;;14.90;99.90;;;;;;4862033;29;20056;-90
2021/08/27 08:04:43;;;;;;;5.75;1.17;;;14.70;99.90;;;;;;4847526;29;20075;-88
2021/08/27 08:07:09;;;;;;;5.32;1.10;;;14.60;99.90;;;;;;4848390;29;20057;-91
2021/08/27 08:09:35;;;;;;;13.45;2.08;;;14.70;99.90;;;;;;4846195;29;20056;-90
2021/08/27 08:19:23;;;;;;;7.90;2.17;;;15.30;99.90;;;;;;5149796;23;20507;-91
2021/08/27 08:21:48;;;;;;;7.85;1.92;;;15.50;99.90;;;;;;4870868;29;20065;-91
2021/08/27 08:24:14;;;;;;;11.88;1.83;;;15.70;99.90;;;;;;4829884;29;20054;-91
2021/08/27 08:26:40;;;;;;;16.90;2.58;;;15.80;99.90;;;;;;4859905;29;20057;-90
2021/08/27 08:29:06;;;;;;;9.50;2.28;;;15.90;99.90;;;;;;4851829;29;20077;-91
2021/08/27 08:31:33;;;;;;;16.45;2.50;;;15.90;99.90;;;;;;4838122;29;20118;-93
2021/08/27 08:33:59;;;;;;;15.95;2.58;;;16.00;99.90;;;;;;4860428;29;20109;-90
2021/08/27 08:36:25;;;;;;;11.15;2.03;;;16.00;99.90;;;;;;4842306;29;20049;-92
2021/08/27 08:38:52;;;;;;;10.70;2.17;;;15.90;99.90;;;;;;4847738;29;20068;-90
2021/08/27 08:41:19;;;;;;;12.35;2.38;;;15.80;99.90;;;;;;4859731;29;20113;-92
2021/08/27 08:43:47;;;;;;;10.63;2.58;;;15.80;99.90;;;;;;4844397;29;20172;-86
2021/08/27 08:46:13;;;;;;;12.98;3.55;;;15.80;99.90;;;;;;4852466;29;20060;-88
2021/08/27 08:48:43;;;;;;;8.93;2.25;;;16.00;99.90;;;;;;4844971;29;20049;-86
2021/08/27 08:51:13;;;;;;;;;;;16.20;99.90;;;;;;4871519;29;20127;-92
2021/08/27 08:53:40;;;;;;;7.07;1.48;;;16.50;99.90;;;;;;4828183;29;20010;-92
2021/08/27 08:56:09;;;;;;;7.35;2.15;;;16.50;99.90;;;;;;4865280;29;20113;-92
2021/08/27 08:58:35;;;;;;;15.43;2.72;;;16.40;99.90;;;;;;4866291;29;20053;-92
2021/08/27 09:01:01;;;;;;;10.82;2.28;;;16.50;99.90;;;;;;4852078;29;20102;-91
2021/08/27 09:03:27;;;;;;;5.07;1.73;;;16.70;99.90;;;;;;4859914;29;20053;-92
2021/08/27 09:05:52;;;;;;;9.02;1.25;;;16.70;99.90;;;;;;4857597;29;20056;-91
2021/08/27 09:08:32;;;;;;;8.30;1.70;;;16.70;99.90;;;;;;4852615;29;20041;-92
2021/08/27 09:10:58;;;;;;;8.27;1.60;;;16.60;99.90;;;;;;4859759;29;20455;-91
2021/08/27 09:13:32;;;;;;;13.48;3.10;;;16.60;99.90;;;;;;4838597;29;20080;-93
2021/08/27 09:16:09;;;;;;;9.18;2.10;;;16.80;99.90;;;;;;4847406;29;20139;-91
2021/08/27 09:18:43;;;;;;;10.63;2.00;;;16.80;99.90;;;;;;4877124;29;20061;-91
2021/08/27 09:21:47;;;;;;;8.45;2.00;;;16.80;99.90;;;;;;4847088;29;20060;-92
2021/08/27 09:24:24;;;;;;;12.35;2.22;;;16.70;99.90;;;;;;4852184;29;20149;-92
2021/08/27 09:26:56;;;;;;;6.32;2.15;;;16.60;99.90;;;;;;4850925;29;20049;-92
2021/08/27 09:29:34;;;;;;;12.93;2.13;;;16.10;99.90;;;;;;4856489;29;20046;-92
2021/08/27 09:32:00;;;;;;;8.18;1.27;;;15.50;99.90;;;;;;4856467;29;20045;-91
2021/08/27 09:34:30;;;;;;;5.18;1.25;;;15.20;99.90;;;;;;4858083;29;20077;-93
2021/08/27 09:36:57;;;;;;;3.97;1.20;;;14.80;99.90;;;;;;4849865;29;20059;-88
2021/08/27 09:39:32;;;;;;;4.28;1.15;;;14.60;99.90;;;;;;4839206;29;20113;-87
2021/08/27 09:41:58;;;;;;;7.03;1.25;;;14.50;99.90;;;;;;4832460;29;20406;-90
2021/08/27 09:44:24;;;;;;;4.15;1.20;;;14.50;99.90;;;;;;4853775;29;20042;-89
2021/08/27 09:46:50;;;;;;;5.00;1.48;;;14.40;99.90;;;;;;4856878;29;20100;-90
2021/08/27 09:49:45;;;;;;;8.32;1.40;;;14.30;99.90;;;;;;4853544;29;20132;-89
2021/08/27 09:52:10;;;;;;;6.07;1.75;;;14.20;99.90;;;;;;4859104;29;20045;-90
2021/08/27 09:54:43;;;;;;;7.75;1.70;;;14.20;99.90;;;;;;4857223;29;20104;-89
2021/08/27 09:57:12;;;;;;;16.05;2.53;;;14.20;99.90;;;;;;4872798;29;20048;-90
2021/08/27 09:59:50;;;;;;;3.75;1.35;;;14.30;99.90;;;;;;4854200;29;20413;-90
2021/08/27 10:02:34;;;;;;;9.75;2.10;;;14.40;99.90;;;;;;4851225;29;20064;-95
2021/08/27 10:05:02;;;;;;;13.27;2.97;;;14.50;99.90;;;;;;4851736;29;20529;-92
2021/08/27 10:07:34;;;;;;;11.55;2.42;;;14.60;99.90;;;;;;4849508;29;20048;-93
2021/08/27 10:10:01;;;;;;;12.25;2.20;;;14.80;99.90;;;;;;4825944;29;20045;-90
2021/08/27 10:12:29;;;;;;;11.38;2.70;;;15.00;99.90;;;;;;4831498;29;20483;-90
2021/08/27 10:14:56;;;;;;;9.57;2.00;;;15.20;99.90;;;;;;4846538;29;20053;-93
2021/08/27 10:17:22;;;;;;;10.05;1.92;;;15.40;99.90;;;;;;4839933;29;20081;-92
2021/08/27 10:19:48;;;;;;;10.98;2.97;;;15.60;99.90;;;;;;4841013;29;20096;-93
2021/08/27 10:22:13;;;;;;;4.57;1.38;;;15.70;99.90;;;;;;4834839;29;20053;-93
2021/08/27 10:24:40;;;;;;;7.03;1.30;;;15.80;99.90;;;;;;4864325;29;20327;-92
2021/08/27 10:27:10;;;;;;;2.75;1.67;;;15.90;99.90;;;;;;4838683;29;20054;-92
2021/08/27 10:29:51;;;;;;;10.45;2.10;;;16.10;99.90;;;;;;4827223;29;20052;-91
2021/08/27 10:32:39;;;;;;;9.40;1.60;;;16.20;99.90;;;;;;4834839;29;20063;-92
2021/08/27 10:35:05;;;;;;;5.13;1.33;;;16.50;99.90;;;;;;4830884;29;20063;-91
2021/08/27 10:37:41;;;;;;;5.32;1.20;;;16.50;99.90;;;;;;4851989;29;20049;-95
2021/08/27 10:40:22;;;;;;;5.22;1.25;;;16.40;99.90;;;;;;4856402;29;20060;-91
2021/08/27 10:42:55;;;;;;;6.18;1.30;;;16.40;99.90;;;;;;4849320;29;20101;-93
2021/08/27 10:45:33;;;;;;;4.38;1.00;;;16.20;99.90;;;;;;4847868;29;20105;-92
2021/08/27 10:48:19;;;;;;;10.88;2.30;;;16.10;99.90;;;;;;4834491;29;20703;-92
2021/08/27 10:50:47;;;;;;;12.45;3.05;;;15.90;99.90;;;;;;4845399;29;20068;-91
2021/08/27 10:53:22;;;;;;;7.97;2.08;;;16.00;99.90;;;;;;4857773;29;20053;-91
2021/08/27 10:55:48;;;;;;;6.85;1.08;;;16.20;99.90;;;;;;4862643;29;20564;-91
2021/08/27 10:58:14;;;;;;;6.90;1.65;;;16.20;99.90;;;;;;4833973;29;20128;-92
2021/08/27 11:00:47;;;;;;;6.30;1.90;;;16.30;99.90;;;;;;4827047;29;20167;-91
2021/08/27 11:03:17;;;;;;;12.07;2.58;;;16.40;99.90;;;;;;4852361;29;20057;-91
2021/08/27 11:05:47;;;;;;;;;;;16.50;99.90;;;;;;4871404;29;20558;-92
2021/08/27 11:08:16;;;;;;;;;;;16.60;99.90;;;;;;4851284;29;19927;-91
2021/08/27 11:10:44;;;;;;;7.10;1.60;;;16.70;99.90;;;;;;4840939;29;19924;-91
2021/08/27 11:13:14;;;;;;;7.95;1.80;;;16.70;99.90;;;;;;4844437;29;20060;-90
2021/08/27 11:15:41;;;;;;;8.32;2.28;;;16.60;99.90;;;;;;4855852;29;20046;-91
2021/08/27 11:18:15;;;;;;;6.93;1.65;;;16.60;99.90;;;;;;4834899;29;20191;-91
2021/08/27 11:20:42;;;;;;;8.82;2.00;;;16.70;99.90;;;;;;4854234;29;20069;-91
2021/08/27 11:23:08;;;;;;;10.10;2.17;;;17.00;99.90;;;;;;4854838;29;20060;-91
2021/08/27 11:25:38;;;;;;;5.95;1.30;;;17.30;99.90;;;;;;4854959;29;20049;-91
2021/08/27 11:28:07;;;;;;;;;;;17.50;99.90;;;;;;4872212;29;20260;-91
2021/08/27 11:30:33;;;;;;;12.45;2.63;;;17.50;99.90;;;;;;4850765;29;19995;-91
2021/08/27 11:33:00;;;;;;;7.10;1.73;;;17.50;99.90;;;;;;4850876;29;20193;-90
2021/08/27 11:35:27;;;;;;;7.65;1.98;;;17.50;99.90;;;;;;4844955;29;20052;-90
2021/08/27 11:37:59;;;;;;;6.50;1.83;;;17.50;99.90;;;;;;4844841;29;20137;-90
2021/08/27 11:40:25;;;;;;;9.38;1.92;;;17.40;99.90;;;;;;4839011;29;20056;-90
2021/08/27 11:42:55;;;;;;;10.85;1.70;;;17.30;99.90;;;;;;4869360;29;20059;-91
2021/08/27 11:45:22;;;;;;;7.50;1.50;;;17.20;99.90;;;;;;4843823;29;20058;-90
2021/08/27 11:47:52;;;;;;;5.47;1.55;;;17.20;99.90;;;;;;4859806;29;20132;-91
2021/08/27 11:50:31;;;;;;;9.85;2.00;;;17.20;99.90;;;;;;4839889;29;20068;-91
2021/08/27 11:52:59;;;;;;;14.88;2.25;;;17.30;99.90;;;;;;4866364;29;20155;-91
2021/08/27 11:55:25;;;;;;;9.80;2.03;;;17.40;99.90;;;;;;4856779;29;20054;-90
2021/08/27 11:57:53;;;;;;;8.90;1.88;;;17.40;99.90;;;;;;4826023;29;20190;-91
2021/08/27 12:00:22;;;;;;;9.75;2.03;;;17.50;99.90;;;;;;4844650;29;20117;-91
2021/08/27 12:02:52;;;;;;;9.50;2.08;;;17.60;99.90;;;;;;4837901;29;20137;-91
2021/08/27 12:05:18;;;;;;;;;;;17.60;99.90;;;;;;4829828;29;20045;-91
2021/08/27 12:07:55;;;;;;;12.23;2.45;;;17.50;99.90;;;;;;4846436;29;20093;-90
2021/08/27 12:10:22;;;;;;;7.07;1.77;;;17.50;99.90;;;;;;4847852;29;20596;-90
2021/08/27 12:12:49;;;;;;;6.80;1.70;;;17.50;99.90;;;;;;4851554;29;20506;-91
2021/08/27 12:15:17;;;;;;;10.85;1.98;;;17.60;99.90;;;;;;4867014;29;20049;-91
2021/08/27 12:17:54;;;;;;;4.93;1.58;;;17.60;99.90;;;;;;4847339;29;20097;-91
2021/08/27 12:20:22;;;;;;;13.27;2.08;;;17.50;99.90;;;;;;4835842;29;20053;-91
2021/08/27 12:22:49;;;;;;;5.68;1.23;;;17.50;99.90;;;;;;4863623;29;20149;-91
2021/08/27 12:25:26;;;;;;;4.30;1.35;;;17.50;99.90;;;;;;4813724;29;20479;-91
2021/08/27 12:27:53;;;;;;;12.90;2.10;;;17.40;99.90;;;;;;4849157;29;20091;-92
2021/08/27 12:30:19;;;;;;;24.95;3.30;;;17.10;99.90;;;;;;4852820;29;20101;-90
2021/08/27 12:32:46;;;;;;;23.73;3.53;;;16.60;99.90;;;;;;4852126;29;20053;-91
2021/08/27 12:35:15;;;;;;;10.90;2.08;;;16.20;99.90;;;;;;4860149;29;20045;-90
2021/08/27 12:37:42;;;;;;;8.10;1.73;;;16.10;99.90;;;;;;4857212;29;20049;-90
2021/08/27 12:40:16;;;;;;;11.02;3.05;;;16.10;99.90;;;;;;4848915;29;20052;-90
2021/08/27 12:43:00;;;;;;;7.80;1.33;;;16.30;99.90;;;;;;4845544;29;20584;-91
2021/08/27 12:45:26;;;;;;;9.32;1.98;;;16.30;99.90;;;;;;4857777;29;20432;-91
2021/08/27 12:48:03;;;;;;;11.10;1.70;;;16.50;99.90;;;;;;4837136;29;20053;-90
2021/08/27 12:50:29;;;;;;;12.18;1.83;;;16.90;99.90;;;;;;4843116;29;20076;-90
2021/08/27 12:53:05;;;;;;;7.53;1.35;;;17.00;99.90;;;;;;4852184;29;20483;-91
2021/08/27 12:55:32;;;;;;;8.00;1.88;;;17.10;99.90;;;;;;4854761;29;20065;-90
2021/08/27 12:57:59;;;;;;;15.88;2.63;;;17.20;99.90;;;;;;4861729;29;20044;-91
2021/08/27 13:00:27;;;;;;;7.85;1.48;;;17.30;99.90;;;;;;4843214;29;20048;-90
2021/08/27 13:02:54;;;;;;;11.07;2.20;;;17.40;99.90;;;;;;4871639;29;20578;-91
2021/08/27 13:05:37;;;;;;;11.57;2.53;;;17.60;99.90;;;;;;4873801;29;20049;-91
2021/08/27 13:08:11;;;;;;;10.13;1.85;;;17.60;99.90;;;;;;4869988;29;20398;-91
2021/08/27 13:10:37;;;;;;;4.80;1.50;;;17.70;99.90;;;;;;4873164;29;20433;-91
2021/08/27 13:13:22;;;;;;;8.30;1.73;;;17.70;99.90;;;;;;4818617;29;20037;-92
2021/08/27 13:16:13;;;;;;;5.63;1.38;;;17.70;99.90;;;;;;4859634;29;20416;-91
2021/08/27 13:18:42;;;;;;;4.80;1.65;;;17.90;99.90;;;;;;4853218;29;20072;-92
2021/08/27 13:21:08;;;;;;;5.05;1.33;;;18.10;99.90;;;;;;4856990;29;20083;-92
2021/08/27 13:23:33;;;;;;;7.65;1.63;;;18.00;99.90;;;;;;4838634;29;20045;-92
2021/08/27 13:26:00;;;;;;;4.28;1.80;;;18.20;99.90;;;;;;4841508;29;20050;-92
2021/08/27 13:28:27;;;;;;;4.35;1.27;;;18.30;99.90;;;;;;4829485;29;20192;-90
2021/08/27 13:30:53;;;;;;;2.60;1.52;;;18.50;99.90;;;;;;4850487;29;20053;-92
2021/08/27 13:33:19;;;;;;;7.65;1.65;;;18.50;99.90;;;;;;4844350;29;20071;-92
2021/08/27 13:35:45;;;;;;;8.30;1.80;;;18.50;99.90;;;;;;4860302;29;20518;-91
2021/08/27 13:38:11;;;;;;;5.35;1.52;;;18.30;99.90;;;;;;4860182;29;20150;-92
2021/08/27 13:40:38;;;;;;;4.85;1.50;;;18.10;99.90;;;;;;4863524;29;20056;-91
2021/08/27 13:43:04;;;;;;;9.35;2.03;;;17.80;99.90;;;;;;4845159;29;20833;-93
2021/08/27 13:45:33;;;;;;;8.63;2.47;;;17.70;99.90;;;;;;4855364;29;20056;-91
2021/08/27 13:47:59;;;;;;;6.53;1.90;;;17.60;99.90;;;;;;4847169;29;20478;-92
2021/08/27 13:50:25;;;;;;;9.55;1.80;;;17.70;99.90;;;;;;4833309;29;20045;-94
2021/08/27 13:52:51;;;;;;;9.32;2.53;;;17.80;99.90;;;;;;4853722;29;20052;-93
2021/08/27 13:55:19;;;;;;;2.53;1.23;;;18.00;99.90;;;;;;4858213;29;20057;-92
2021/08/27 13:57:45;;;;;;;9.15;1.50;;;18.00;99.90;;;;;;4858540;29;20413;-94
2021/08/27 14:00:13;;;;;;;13.68;2.33;;;18.10;99.90;;;;;;4846533;29;20492;-93
2021/08/27 14:02:39;;;;;;;8.35;1.75;;;17.90;99.90;;;;;;4845417;29;20049;-92
2021/08/27 14:05:07;;;;;;;4.75;1.67;;;17.70;99.90;;;;;;4854892;29;20518;-92
2021/08/27 14:07:33;;;;;;;7.50;1.42;;;17.50;99.90;;;;;;4857108;29;20057;-91
2021/08/27 14:09:59;;;;;;;6.28;2.03;;;17.50;99.90;;;;;;4854454;29;20060;-93
2021/08/27 14:12:24;;;;;;;9.55;1.73;;;17.40;99.90;;;;;;4853551;29;20049;-93
2021/08/27 14:14:50;;;;;;;17.45;3.63;;;17.40;99.90;;;;;;4859591;29;20057;-93
2021/08/27 14:17:16;;;;;;;14.68;1.95;;;17.30;99.90;;;;;;4871028;29;20053;-94
2021/08/27 14:19:42;;;;;;;17.95;2.05;;;17.40;99.90;;;;;;4870165;29;20547;-92
2021/08/27 14:22:08;;;;;;;8.38;2.00;;;17.50;99.90;;;;;;4851932;29;20053;-93
2021/08/27 14:24:34;;;;;;;5.40;1.60;;;17.80;99.90;;;;;;4846485;29;20120;-91
2021/08/27 14:27:00;;;;;;;6.93;2.05;;;18.00;99.90;;;;;;4864773;29;20124;-94
2021/08/27 14:29:26;;;;;;;7.85;1.58;;;18.20;99.90;;;;;;4837112;29;20049;-95
2021/08/27 14:31:52;;;;;;;5.65;1.52;;;18.30;99.90;;;;;;4840548;29;20152;-93
2021/08/27 14:34:17;;;;;;;11.35;2.22;;;18.50;99.90;;;;;;4854277;29;20059;-93
2021/08/27 14:36:43;;;;;;;4.93;1.52;;;18.50;99.90;;;;;;4840902;29;20064;-94
2021/08/27 14:39:10;;;;;;;11.68;2.08;;;18.50;99.90;;;;;;4847262;29;20053;-94
2021/08/27 14:41:36;;;;;;;6.93;1.23;;;18.60;99.90;;;;;;4845987;29;20052;-91
2021/08/27 14:44:03;;;;;;;6.43;1.85;;;18.50;99.90;;;;;;4854968;29;20058;-95
2021/08/27 14:46:29;;;;;;;6.88;1.60;;;18.40;99.90;;;;;;4855477;29;20111;-93
2021/08/27 14:48:57;;;;;;;10.05;1.58;;;18.30;99.90;;;;;;4874786;29;20084;-94
2021/08/27 14:51:23;;;;;;;6.47;1.63;;;18.10;99.90;;;;;;4842150;29;20524;-92
2021/08/27 14:53:49;;;;;;;8.50;1.80;;;17.90;99.90;;;;;;4843030;29;20045;-91
2021/08/27 14:56:14;;;;;;;13.00;1.73;;;17.80;99.90;;;;;;4866069;29;20383;-90
2021/08/27 14:58:40;;;;;;;4.97;1.23;;;17.80;99.90;;;;;;4853111;29;20057;-90
2021/08/27 15:01:06;;;;;;;9.15;1.63;;;17.70;99.90;;;;;;4866592;29;20049;-93
2021/08/27 15:03:32;;;;;;;7.22;1.60;;;17.70;99.90;;;;;;4849640;29;20057;-90
2021/08/27 15:05:57;;;;;;;1.83;0.77;;;17.60;99.90;;;;;;4855153;29;20061;-92
2021/08/27 15:08:23;;;;;;;12.18;1.70;;;17.60;99.90;;;;;;4850281;29;20588;-93
2021/08/27 15:10:50;;;;;;;7.13;1.52;;;17.60;99.90;;;;;;4856197;29;20068;-90
2021/08/27 15:13:16;;;;;;;4.75;0.90;;;17.60;99.90;;;;;;4856501;29;20045;-91
2021/08/27 15:15:42;;;;;;;6.55;1.50;;;17.70;99.90;;;;;;4853553;29;20084;-91
2021/08/27 15:18:08;;;;;;;5.07;1.25;;;17.70;99.90;;;;;;4854665;29;20088;-91
2021/08/27 15:20:34;;;;;;;4.40;1.40;;;17.80;99.90;;;;;;4841653;29;20052;-93
2021/08/27 15:22:59;;;;;;;7.72;2.28;;;18.10;99.90;;;;;;4839362;29;20501;-91
2021/08/27 15:25:29;;;;;;;8.60;1.50;;;18.10;99.90;;;;;;4872295;29;20056;-93
2021/08/27 15:27:55;;;;;;;6.68;1.17;;;18.10;99.90;;;;;;4841104;29;20053;-93
2021/08/27 15:30:21;;;;;;;6.28;1.27;;;18.00;99.90;;;;;;4846666;29;20057;-91